Time;durP1;ratioP1;P1;durP2;ratioP2;P2;SDS_P1;SDS_P2;PMS_P1;PMS_P2;Temp;Humidity;BMP_temperature;BMP_pressure;BME280_temperature;BME280_humidity;BME280_pressure;Samples;Min_cycle;Max_cycle;Signal;HPM_P1;HPM_P2
2023/04/09 00:03:39;;;;;;;78.68;39.05;;;;;;;7.35;100.00;101479.00;8259258;28;20072;-60
2023/04/09 00:07:40;;;;;;;61.38;33.85;;;;;;;7.03;100.00;101489.06;8259102;28;20046;-60
2023/04/09 00:11:40;;;;;;;73.13;37.72;;;;;;;7.38;100.00;101485.03;8260541;28;20049;-60
2023/04/09 00:15:41;;;;;;;70.03;37.10;;;;;;;7.12;100.00;101485.81;8273356;28;20042;-60
2023/04/09 00:19:41;;;;;;;59.95;34.65;;;;;;;7.29;100.00;101484.78;8259750;28;20042;-60
2023/04/09 00:23:42;;;;;;;58.22;32.40;;;;;;;6.85;100.00;101478.56;8287092;28;20046;-60
2023/04/09 00:27:43;;;;;;;55.45;31.30;;;;;;;6.71;100.00;101474.03;8290762;28;20053;-60
2023/04/09 00:31:43;;;;;;;54.08;30.25;;;;;;;6.92;100.00;101478.09;8291689;28;20046;-60
2023/04/09 00:35:44;;;;;;;52.83;29.48;;;;;;;7.21;100.00;101479.00;8292295;28;20041;-60
2023/04/09 00:39:45;;;;;;;66.75;36.00;;;;;;;7.26;100.00;101477.75;8292207;28;20044;-60
2023/04/09 00:43:46;;;;;;;67.25;35.40;;;;;;;7.21;100.00;101469.13;8291920;28;20148;-54
2023/04/09 00:47:47;;;;;;;58.92;32.20;;;;;;;6.88;100.00;101484.63;8292126;28;20046;-54
2023/04/09 00:51:47;;;;;;;58.72;33.83;;;;;;;6.80;100.00;101472.63;8291224;28;20121;-54
2023/04/09 00:55:48;;;;;;;63.67;34.60;;;;;;;6.79;100.00;101479.81;8287132;28;20041;-54
2023/04/09 00:59:49;;;;;;;68.20;36.08;;;;;;;6.68;100.00;101471.53;8294392;28;20069;-54
2023/04/09 01:03:50;;;;;;;66.95;35.88;;;;;;;6.77;100.00;101468.28;8289876;28;20038;-54
2023/04/09 01:08:11;;;;;;;74.53;36.80;;;;;;;6.68;100.00;101471.53;8290728;28;20608;-54
2023/04/09 01:12:22;;;;;;;69.40;37.30;;;;;;;6.86;100.00;101474.94;8291115;28;20038;-54
2023/04/09 01:16:23;;;;;;;67.97;37.50;;;;;;;7.12;100.00;101467.00;8291157;28;20061;-54
2023/04/09 01:20:33;;;;;;;66.00;35.58;;;;;;;7.12;100.00;101469.69;8288169;28;20044;-55
2023/04/09 01:24:45;;;;;;;55.33;29.75;;;;;;;6.36;100.00;101466.34;8258175;28;20058;-54
2023/04/09 01:28:54;;;;;;;64.15;32.90;;;;;;;6.58;100.00;101461.44;8258862;28;20497;-54
2023/04/09 01:32:56;;;;;;;73.30;35.15;;;;;;;6.59;100.00;101461.34;8247067;28;20035;-55
2023/04/09 01:37:01;;;;;;;66.93;34.88;;;;;;;6.63;100.00;101462.91;8258155;28;20421;-55
2023/04/09 01:41:02;;;;;;;;;;;;;;;6.82;100.00;101463.50;8259162;28;20408;-54
2023/04/09 01:45:04;;;;;;;70.15;35.88;;;;;;;7.07;100.00;101458.34;8257307;28;19972;-54
2023/04/09 01:49:06;;;;;;;63.45;34.55;;;;;;;6.99;100.00;101460.66;8257946;28;20042;-55
2023/04/09 01:53:06;;;;;;;63.03;33.38;;;;;;;6.74;100.00;101464.94;8281230;28;20045;-54
2023/04/09 01:57:07;;;;;;;68.25;35.08;;;;;;;6.70;100.00;101458.88;8290176;28;20037;-54
2023/04/09 02:01:13;;;;;;;68.72;35.67;;;;;;;6.64;100.00;101459.25;8289005;28;20029;-54
2023/04/09 02:05:18;;;;;;;67.97;36.15;;;;;;;6.83;100.00;101459.00;8289843;28;20467;-55
2023/04/09 02:09:20;;;;;;;66.30;33.70;;;;;;;6.76;100.00;101463.88;8289799;28;20497;-59
2023/04/09 02:13:22;;;;;;;71.65;36.03;;;;;;;6.67;100.00;101467.13;8296676;28;20245;-59
2023/04/09 02:17:23;;;;;;;80.53;41.40;;;;;;;6.83;100.00;101465.22;8295460;28;20544;-59
2023/04/09 02:21:23;;;;;;;76.90;37.92;;;;;;;6.54;100.00;101452.72;8296465;28;20400;-59
2023/04/09 02:25:24;;;;;;;83.13;39.38;;;;;;;6.63;100.00;101449.47;8295699;28;20120;-59
2023/04/09 02:29:25;;;;;;;75.22;35.85;;;;;;;6.46;100.00;101460.34;8284999;28;20046;-56
2023/04/09 02:33:25;;;;;;;83.78;40.63;;;;;;;6.65;100.00;101450.22;8295367;28;20116;-53
2023/04/09 02:37:26;;;;;;;80.70;39.33;;;;;;;6.75;100.00;101448.72;8295726;28;20485;-55
2023/04/09 02:41:26;;;;;;;77.63;39.13;;;;;;;6.48;100.00;101449.50;8295145;28;20042;-55
2023/04/09 02:45:26;;;;;;;77.55;38.20;;;;;;;6.40;100.00;101444.59;8294855;28;20117;-55
2023/04/09 02:49:27;;;;;;;69.13;33.20;;;;;;;5.83;100.00;101431.94;8295536;28;20038;-55
2023/04/09 02:53:28;;;;;;;69.95;35.75;;;;;;;5.78;100.00;101433.97;8294383;28;20177;-55
2023/04/09 02:57:29;;;;;;;78.70;36.08;;;;;;;5.93;100.00;101438.50;8292395;28;20034;-54
2023/04/09 03:01:30;;;;;;;72.95;33.75;;;;;;;6.11;100.00;101440.09;8294829;28;20064;-60
2023/04/09 03:05:30;;;;;;;71.70;34.97;;;;;;;6.08;100.00;101437.59;8295431;28;20054;-61
2023/04/09 03:09:31;;;;;;;64.28;32.53;;;;;;;5.78;100.00;101439.34;8294389;28;20111;-61
2023/04/09 03:13:31;;;;;;;71.28;33.20;;;;;;;5.61;100.00;101436.72;8294162;28;20034;-60
2023/04/09 03:17:32;;;;;;;84.00;36.25;;;;;;;5.63;100.00;101429.47;8293927;28;20117;-60
2023/04/09 03:21:32;;;;;;;87.35;40.25;;;;;;;5.87;100.00;101433.47;8294481;28;20514;-60
2023/04/09 03:25:33;;;;;;;107.38;44.55;;;;;;;6.16;100.00;101423.72;8293861;28;20677;-61
2023/04/09 03:29:42;;;;;;;353.95;43.60;;;;;;;5.73;100.00;101425.31;8294191;28;20053;-61
2023/04/09 03:33:43;;;;;;;295.70;46.17;;;;;;;5.79;100.00;101420.47;8293727;28;20044;-61
2023/04/09 03:37:44;;;;;;;248.48;43.22;;;;;;;5.73;100.00;101414.56;8293608;28;20049;-60
2023/04/09 03:41:50;;;;;;;268.23;45.58;;;;;;;5.70;100.00;101418.31;8294350;28;20096;-60
2023/04/09 03:45:52;;;;;;;405.08;46.47;;;;;;;5.29;100.00;101417.13;8293414;28;20040;-60
2023/04/09 03:49:57;;;;;;;285.58;42.65;;;;;;;5.20;100.00;101414.06;8293495;28;20088;-60
2023/04/09 03:54:01;;;;;;;169.38;40.83;;;;;;;5.21;100.00;101415.78;8293164;28;20042;-60
2023/04/09 03:58:02;;;;;;;158.82;40.50;;;;;;;5.19;100.00;101417.72;8292474;28;20030;-60
2023/04/09 04:02:06;;;;;;;134.27;43.55;;;;;;;5.27;100.00;101415.44;8293417;28;20532;-60
2023/04/09 04:06:11;;;;;;;152.68;47.45;;;;;;;5.41;100.00;101419.13;8292308;28;20029;-60
2023/04/09 04:10:20;;;;;;;236.98;48.38;;;;;;;5.43;100.00;101413.66;8293278;28;20440;-60
2023/04/09 04:14:21;;;;;;;208.07;42.33;;;;;;;5.31;100.00;101417.03;8292543;28;20519;-60
2023/04/09 04:18:27;;;;;;;217.07;39.33;;;;;;;5.25;100.00;101417.38;8291657;28;20504;-60
2023/04/09 04:22:28;;;;;;;265.52;48.25;;;;;;;5.09;100.00;101417.34;8292384;28;20038;-60
2023/04/09 04:26:33;;;;;;;301.17;47.00;;;;;;;5.02;100.00;101420.44;8291632;28;20096;-60
2023/04/09 04:30:33;;;;;;;155.70;35.78;;;;;;;4.89;100.00;101414.00;8291930;28;20115;-60
2023/04/09 04:34:39;;;;;;;115.75;36.65;;;;;;;4.83;100.00;101425.06;8290833;28;20113;-54
2023/04/09 04:38:50;;;;;;;138.88;38.08;;;;;;;4.81;100.00;101427.81;8292198;28;20122;-55
2023/04/09 04:42:59;;;;;;;126.28;39.53;;;;;;;4.67;100.00;101434.88;8259711;28;20121;-53
2023/04/09 04:47:00;;;;;;;110.35;37.13;;;;;;;4.75;100.00;101432.63;8257666;28;20061;-60
2023/04/09 04:51:02;;;;;;;146.60;36.58;;;;;;;4.67;100.00;101429.50;8265945;28;20129;-60
2023/04/09 04:55:12;;;;;;;220.85;43.58;;;;;;;4.63;100.00;101436.81;8290938;28;20033;-60
2023/04/09 04:59:14;;;;;;;192.70;37.78;;;;;;;4.54;100.00;101431.97;8291545;28;20049;-59
2023/04/09 05:03:27;;;;;;;175.15;37.00;;;;;;;4.42;100.00;101434.41;8289435;28;20117;-60
2023/04/09 05:07:35;;;;;;;167.38;38.50;;;;;;;4.20;100.00;101415.06;8291278;28;20095;-59
2023/04/09 05:11:36;;;;;;;187.75;37.42;;;;;;;4.32;100.00;101431.34;8291320;28;20416;-60
2023/04/09 05:15:40;;;;;;;82.03;32.72;;;;;;;4.24;100.00;101436.22;8290359;28;20558;-59
2023/04/09 05:19:41;;;;;;;84.60;35.97;;;;;;;4.35;100.00;101425.84;8291225;28;20033;-59
2023/04/09 05:23:43;;;;;;;100.00;34.97;;;;;;;4.29;100.00;101433.28;8291034;28;20045;-59
2023/04/09 05:27:44;;;;;;;96.40;33.40;;;;;;;4.34;100.00;101432.13;8290628;28;20519;-60
2023/04/09 05:31:45;;;;;;;90.60;34.38;;;;;;;4.45;100.00;101428.91;8289519;28;20522;-59
2023/04/09 05:35:55;;;;;;;86.85;35.85;;;;;;;4.60;100.00;101433.47;8280053;28;20042;-59
2023/04/09 05:39:56;;;;;;;77.75;35.75;;;;;;;4.53;100.00;101443.63;8290334;28;20054;-59
2023/04/09 05:43:58;;;;;;;76.22;34.45;;;;;;;4.56;100.00;101431.88;8290902;28;20378;-59
2023/04/09 05:47:58;;;;;;;70.65;35.88;;;;;;;4.63;100.00;101435.97;8295964;28;20045;-59
2023/04/09 05:51:59;;;;;;;68.15;36.03;;;;;;;4.63;100.00;101434.16;8297278;28;20034;-54
2023/04/09 05:56:14;;;;;;;66.93;32.58;;;;;;;4.74;100.00;101437.13;8295985;28;20120;-55
2023/04/09 06:00:21;;;;;;;58.35;30.73;;;;;;;4.84;100.00;101426.78;8296602;28;20033;-54
2023/04/09 06:04:23;;;;;;;54.42;30.40;;;;;;;4.78;100.00;101430.66;8293714;28;20519;-54
2023/04/09 06:08:23;;;;;;;58.10;29.92;;;;;;;4.89;100.00;101440.81;8297325;28;20475;-53
2023/04/09 06:12:24;;;;;;;59.22;31.00;;;;;;;4.97;100.00;101438.59;8292597;28;20034;-53
2023/04/09 06:16:25;;;;;;;59.90;32.17;;;;;;;5.07;100.00;101434.47;8281646;28;20053;-55
2023/04/09 06:20:25;;;;;;;60.80;33.83;;;;;;;5.31;100.00;101438.47;8296848;28;20056;-54
2023/04/09 06:24:26;;;;;;;62.80;32.78;;;;;;;5.39;100.00;101433.53;8295312;28;20122;-58
2023/04/09 06:28:28;;;;;;;67.30;33.33;;;;;;;5.68;100.00;101433.63;8293208;28;20048;-59
2023/04/09 06:32:28;;;;;;;66.93;35.33;;;;;;;6.04;100.00;101441.44;8286981;28;20471;-58
2023/04/09 06:36:29;;;;;;;69.72;37.20;;;;;;;6.29;100.00;101452.44;8276245;28;20042;-59
2023/04/09 06:40:30;;;;;;;75.70;36.25;;;;;;;6.88;100.00;101447.00;8265737;28;20046;-58
2023/04/09 06:44:31;;;;;;;86.25;39.33;;;;;;;6.92;100.00;101453.91;8279446;28;20505;-58
2023/04/09 06:48:33;;;;;;;92.35;43.03;;;;;;;7.05;100.00;101454.03;8293781;28;20046;-58
2023/04/09 06:52:33;;;;;;;89.35;40.10;;;;;;;7.61;100.00;101453.97;8292872;28;20041;-58
2023/04/09 06:56:34;;;;;;;75.20;39.05;;;;;;;8.09;100.00;101453.47;8289734;28;20042;-60
2023/04/09 07:00:34;;;;;;;77.00;37.95;;;;;;;8.39;100.00;101462.22;8288987;28;20092;-58
2023/04/09 07:04:35;;;;;;;70.18;36.20;;;;;;;8.62;100.00;101456.13;8285545;28;20412;-58
2023/04/09 07:08:35;;;;;;;70.93;36.78;;;;;;;8.82;100.00;101462.84;8291558;28;20548;-59
2023/04/09 07:12:36;;;;;;;70.68;36.83;;;;;;;9.10;100.00;101462.63;8292140;28;20033;-59
2023/04/09 07:16:36;;;;;;;64.05;34.60;;;;;;;9.39;100.00;101453.31;8291289;28;20501;-58
2023/04/09 07:20:37;;;;;;;57.63;28.85;;;;;;;9.73;100.00;101463.41;8276894;28;20037;-59
2023/04/09 07:24:37;;;;;;;54.75;28.92;;;;;;;10.22;98.44;101461.53;8293563;28;20092;-59
2023/04/09 07:28:37;;;;;;;51.13;27.98;;;;;;;10.34;97.39;101465.97;8294802;28;20045;-59
2023/04/09 07:32:38;;;;;;;46.95;27.10;;;;;;;10.54;95.99;101456.34;8293340;28;20034;-59
2023/04/09 07:36:39;;;;;;;39.45;23.38;;;;;;;10.58;95.67;101460.56;8294234;28;20420;-59
2023/04/09 07:40:40;;;;;;;38.40;22.73;;;;;;;10.94;93.62;101466.69;8292822;28;20046;-59
2023/04/09 07:44:42;;;;;;;35.95;22.35;;;;;;;10.87;91.68;101470.88;8291861;28;20073;-59
2023/04/09 07:48:42;;;;;;;38.28;22.58;;;;;;;11.27;92.82;101474.88;8289950;28;20042;-59
2023/04/09 07:52:43;;;;;;;36.35;20.77;;;;;;;11.33;89.83;101479.78;8290114;28;20136;-59
2023/04/09 07:56:43;;;;;;;37.13;22.30;;;;;;;11.43;89.56;101475.34;8278055;28;20099;-59
2023/04/09 08:00:44;;;;;;;30.95;19.60;;;;;;;11.72;87.54;101473.88;8266058;28;20606;-59
2023/04/09 08:04:44;;;;;;;35.17;20.52;;;;;;;11.88;89.45;101477.09;8290500;28;20412;-59
2023/04/09 08:09:02;;;;;;;37.58;21.00;;;;;;;11.86;87.51;101478.19;8273029;28;20050;-59
2023/04/09 08:13:02;;;;;;;36.85;21.42;;;;;;;12.00;87.80;101468.94;8271400;28;20026;-59
2023/04/09 08:17:03;;;;;;;34.92;20.27;;;;;;;12.25;88.23;101477.63;8249656;28;20034;-59
2023/04/09 08:21:04;;;;;;;33.95;18.88;;;;;;;12.30;87.59;101477.22;8251048;28;20502;-58
2023/04/09 08:25:06;;;;;;;33.10;20.00;;;;;;;12.47;85.89;101474.81;8286576;28;20428;-59
2023/04/09 08:29:07;;;;;;;32.20;19.73;;;;;;;12.59;84.14;101476.50;8281554;28;20038;-59
2023/04/09 08:33:08;;;;;;;33.45;18.33;;;;;;;13.09;81.60;101477.63;8287015;28;20072;-59
2023/04/09 08:37:08;;;;;;;26.83;16.30;;;;;;;13.20;80.24;101474.81;8286702;28;20030;-59
2023/04/09 08:41:17;;;;;;;28.88;17.02;;;;;;;13.39;77.47;101474.94;8284813;28;20514;-59
2023/04/09 08:45:17;;;;;;;25.50;15.48;;;;;;;13.37;75.69;101472.38;8281363;28;20497;-54
2023/04/09 08:49:18;;;;;;;24.38;14.23;;;;;;;13.63;75.32;101472.75;8280065;28;20400;-54
2023/04/09 08:53:21;;;;;;;22.50;13.70;;;;;;;13.99;72.90;101464.00;8285530;28;20037;-55
2023/04/09 08:57:22;;;;;;;24.60;14.52;;;;;;;13.80;73.84;101461.22;8285961;28;20053;-54
2023/04/09 09:01:25;;;;;;;20.75;13.68;;;;;;;14.02;70.99;101461.00;8271873;28;20034;-54
2023/04/09 09:05:35;;;;;;;19.52;12.73;;;;;;;14.40;71.02;101457.53;8266069;28;20038;-54
2023/04/09 09:09:57;;;;;;;20.23;12.77;;;;;;;14.29;70.37;101455.78;8267100;28;20318;-49
2023/04/09 09:14:04;;;;;;;22.15;12.55;;;;;;;14.42;71.32;101455.53;8279807;28;20504;-50
2023/04/09 09:18:06;;;;;;;17.45;11.65;;;;;;;14.43;71.38;101452.66;8285754;28;20546;-49
2023/04/09 09:22:07;;;;;;;15.98;10.73;;;;;;;14.81;68.15;101439.03;8283649;28;20029;-50
2023/04/09 09:26:13;;;;;;;13.15;8.70;;;;;;;15.02;65.05;101434.28;8285073;28;20037;-51
2023/04/09 09:30:28;;;;;;;12.20;7.88;;;;;;;15.06;63.76;101430.22;8282465;28;20088;-52
2023/04/09 09:34:30;;;;;;;13.90;9.65;;;;;;;15.61;61.79;101432.09;8265858;28;20666;-50
2023/04/09 09:38:31;;;;;;;9.95;7.43;;;;;;;16.43;57.59;101429.25;8270055;28;20065;-55
2023/04/09 09:42:31;;;;;;;12.43;7.55;;;;;;;18.10;54.22;101420.47;8285777;28;20448;-55
2023/04/09 09:46:35;;;;;;;5.57;4.03;;;;;;;18.53;49.43;101412.00;8281735;28;20068;-55
2023/04/09 09:50:38;;;;;;;7.50;4.55;;;;;;;18.60;48.32;101410.31;8275078;28;20038;-55
2023/04/09 09:54:41;;;;;;;5.90;4.30;;;;;;;19.12;47.79;101403.41;8283777;28;20034;-55
2023/04/09 09:58:53;;;;;;;5.72;4.35;;;;;;;19.73;46.65;101401.91;8277585;28;20121;-55
2023/04/09 10:02:57;;;;;;;6.28;4.07;;;;;;;19.87;46.83;101412.09;8284049;28;20065;-55
2023/04/09 10:07:01;;;;;;;6.22;4.75;;;;;;;20.02;46.97;101413.06;8266684;28;20067;-54
2023/04/09 10:11:03;;;;;;;7.23;4.50;;;;;;;20.45;46.24;101409.72;8282241;28;20042;-55
2023/04/09 10:15:05;;;;;;;6.43;4.82;;;;;;;21.29;44.74;101399.41;8278654;28;20045;-54
2023/04/09 10:19:06;;;;;;;7.55;4.93;;;;;;;21.42;44.69;101405.09;8279089;28;20034;-59
2023/04/09 10:23:14;;;;;;;5.95;4.90;;;;;;;22.07;43.96;101400.50;8280514;28;20598;-57
2023/04/09 10:27:15;;;;;;;8.45;5.07;;;;;;;21.93;43.44;101406.91;8276840;28;20080;-59
2023/04/09 10:31:16;;;;;;;5.95;5.03;;;;;;;21.00;45.34;101410.34;8278504;28;20315;-59
2023/04/09 10:35:24;;;;;;;8.73;5.90;;;;;;;21.94;42.98;101397.59;8284682;28;20384;-59
2023/04/09 10:39:27;;;;;;;6.20;5.22;;;;;;;21.12;43.63;101392.34;8282611;28;20132;-58
2023/04/09 10:43:29;;;;;;;7.00;5.13;;;;;;;21.13;44.42;101389.41;8284662;28;20037;-58
2023/04/09 10:47:32;;;;;;;8.13;5.07;;;;;;;21.82;43.43;101390.00;8285383;28;20042;-56
2023/04/09 10:51:37;;;;;;;8.20;5.40;;;;;;;21.04;44.90;101378.66;8284079;28;20292;-56
2023/04/09 10:55:39;;;;;;;8.48;5.82;;;;;;;21.70;44.43;101389.59;8277359;28;20045;-57
2023/04/09 10:59:43;;;;;;;7.75;5.65;;;;;;;21.76;43.91;101385.25;8288109;28;20480;-58
2023/04/09 11:04:05;;;;;;;7.65;5.47;;;;;;;22.28;43.79;101374.88;8287037;28;20092;-59
2023/04/09 11:08:09;;;;;;;7.93;5.78;;;;;;;21.93;44.24;101386.78;8254497;28;20050;-59
2023/04/09 11:12:10;;;;;;;8.60;5.72;;;;;;;22.50;43.80;101369.22;8254131;28;20039;-58
2023/04/09 11:16:10;;;;;;;8.18;5.65;;;;;;;21.99;43.28;101362.03;8255510;28;20470;-58
2023/04/09 11:20:13;;;;;;;6.35;5.05;;;;;;;22.49;44.18;101359.22;8272572;28;20045;-58
2023/04/09 11:24:14;;;;;;;7.80;6.18;;;;;;;22.82;43.20;101357.66;8287923;28;20038;-58
2023/04/09 11:28:15;;;;;;;7.57;5.78;;;;;;;24.51;41.09;101346.63;8283922;28;20108;-58
2023/04/09 11:32:16;;;;;;;7.85;5.13;;;;;;;25.06;40.26;101353.66;8283192;28;20037;-58
2023/04/09 11:36:16;;;;;;;6.80;5.70;;;;;;;19.97;44.17;101357.88;8287774;28;20034;-58
2023/04/09 11:40:19;;;;;;;5.85;5.20;;;;;;;20.10;46.30;101344.38;8274148;28;20038;-54
2023/04/09 11:44:20;;;;;;;8.10;5.75;;;;;;;19.92;46.55;101338.31;8265732;28;20401;-54
2023/04/09 11:48:23;;;;;;;8.15;6.05;;;;;;;19.76;47.29;101336.50;8284326;28;20057;-54
2023/04/09 11:52:24;;;;;;;7.30;5.80;;;;;;;21.49;45.29;101333.63;8287890;28;20164;-54
2023/04/09 11:56:25;;;;;;;8.93;5.85;;;;;;;21.74;43.89;101330.41;8283259;28;20034;-55
2023/04/09 12:00:27;;;;;;;7.13;5.57;;;;;;;22.23;43.56;101338.81;8258294;28;20053;-55
2023/04/09 12:04:28;;;;;;;7.28;5.63;;;;;;;22.42;43.94;101327.97;8274840;28;20117;-58
2023/04/09 12:08:30;;;;;;;8.05;6.25;;;;;;;20.63;44.68;101330.59;8287206;28;20048;-58
2023/04/09 12:12:30;;;;;;;10.70;6.50;;;;;;;18.01;49.66;101331.16;8287719;28;20038;-58
2023/04/09 12:16:34;;;;;;;8.07;5.80;;;;;;;17.68;50.84;101331.25;8285434;28;20076;-56
2023/04/09 12:20:38;;;;;;;6.95;5.22;;;;;;;18.96;48.49;101323.09;8286529;28;20496;-59
2023/04/09 12:24:38;;;;;;;7.35;5.38;;;;;;;18.88;48.50;101329.44;8287331;28;20096;-59
2023/04/09 12:28:39;;;;;;;7.60;6.10;;;;;;;18.56;49.02;101323.16;8286521;28;20069;-59
2023/04/09 12:32:41;;;;;;;8.95;6.10;;;;;;;18.83;50.29;101320.91;8287107;28;20574;-57
2023/04/09 12:36:42;;;;;;;8.63;6.50;;;;;;;18.77;50.70;101316.13;8265006;28;20053;-56
2023/04/09 12:40:42;;;;;;;7.97;5.85;;;;;;;18.20;51.22;101330.81;8258983;28;20046;-57
2023/04/09 12:44:43;;;;;;;8.75;6.55;;;;;;;18.31;50.68;101319.56;8283081;28;20042;-58
2023/04/09 12:48:44;;;;;;;8.65;5.72;;;;;;;18.45;51.83;101321.63;8283944;28;20046;-54
2023/04/09 12:52:45;;;;;;;7.65;5.93;;;;;;;17.99;50.54;101313.19;8277875;28;20065;-54
2023/04/09 12:56:45;;;;;;;7.78;5.47;;;;;;;18.18;50.84;101313.75;8284948;28;20038;-55
2023/04/09 13:00:46;;;;;;;7.55;5.38;;;;;;;17.85;50.07;101308.38;8284505;28;20065;-55
2023/04/09 13:04:47;;;;;;;8.02;5.75;;;;;;;17.27;50.52;101308.34;8280287;28;20037;-55
2023/04/09 13:08:47;;;;;;;7.32;5.72;;;;;;;17.23;51.47;101310.53;8284067;28;20362;-54
2023/04/09 13:12:48;;;;;;;7.70;4.82;;;;;;;17.60;52.12;101300.09;8285616;28;20042;-55
2023/04/09 13:16:48;;;;;;;7.22;5.10;;;;;;;17.76;52.55;101293.84;8285017;28;20047;-55
2023/04/09 13:20:49;;;;;;;8.95;5.57;;;;;;;17.63;49.89;101300.81;8285865;28;20042;-54
2023/04/09 13:24:49;;;;;;;8.20;5.82;;;;;;;17.58;50.25;101304.03;8283893;28;20038;-55
2023/04/09 13:28:52;;;;;;;7.03;5.63;;;;;;;17.67;51.96;101310.38;8283705;28;20045;-55
2023/04/09 13:32:52;;;;;;;8.48;5.85;;;;;;;17.57;51.03;101302.34;8268521;28;20481;-55
2023/04/09 13:36:52;;;;;;;8.63;5.95;;;;;;;17.10;54.70;101295.59;8274277;28;20382;-55
2023/04/09 13:40:53;;;;;;;8.07;5.72;;;;;;;17.41;52.90;101291.28;8281671;28;20033;-55
2023/04/09 13:44:54;;;;;;;8.00;5.85;;;;;;;17.39;51.60;101283.25;8282192;28;20404;-55
2023/04/09 13:48:54;;;;;;;7.88;5.30;;;;;;;17.48;53.24;101286.94;8283584;28;20521;-55
2023/04/09 13:52:55;;;;;;;8.23;5.97;;;;;;;17.24;52.53;101287.66;8282337;28;20544;-55
2023/04/09 13:56:55;;;;;;;9.45;6.38;;;;;;;17.13;54.10;101270.69;8284944;28;20038;-55
2023/04/09 14:00:56;;;;;;;8.05;5.75;;;;;;;17.33;52.13;101272.16;8284637;28;20520;-56
2023/04/09 14:04:57;;;;;;;8.25;5.78;;;;;;;16.99;52.07;101263.13;8286440;28;20041;-55
2023/04/09 14:08:57;;;;;;;8.32;5.72;;;;;;;17.17;51.83;101251.06;8283593;28;20050;-54
2023/04/09 14:12:58;;;;;;;8.40;5.80;;;;;;;16.98;51.74;101250.47;8284988;28;20042;-55
2023/04/09 14:16:58;;;;;;;7.60;5.80;;;;;;;17.17;51.92;101261.16;8288881;28;20029;-55
2023/04/09 14:20:59;;;;;;;11.45;6.38;;;;;;;17.06;52.65;101258.72;8290479;28;20045;-55
2023/04/09 14:24:59;;;;;;;8.52;5.70;;;;;;;16.99;52.64;101244.84;8258652;28;20523;-54
2023/04/09 14:29:00;;;;;;;7.82;5.43;;;;;;;17.23;52.00;101234.00;8287762;28;20065;-55
2023/04/09 14:33:00;;;;;;;9.48;6.03;;;;;;;16.98;51.87;101234.06;8285588;28;20045;-58
2023/04/09 14:37:01;;;;;;;7.25;5.93;;;;;;;17.04;53.15;101236.16;8288725;28;20049;-59
2023/04/09 14:41:02;;;;;;;7.78;6.07;;;;;;;17.10;51.69;101238.22;8290718;28;20048;-59
2023/04/09 14:45:02;;;;;;;8.63;6.30;;;;;;;17.12;51.84;101233.47;8284229;28;20524;-59
2023/04/09 14:49:03;;;;;;;6.70;5.20;;;;;;;17.27;52.27;101218.13;8290662;28;20095;-59
2023/04/09 14:53:03;;;;;;;6.70;4.78;;;;;;;16.95;51.69;101228.94;8287796;28;20062;-59
2023/04/09 14:57:04;;;;;;;7.57;5.07;;;;;;;17.07;51.91;101220.28;8289972;28;20037;-59
2023/04/09 15:01:05;;;;;;;8.38;6.00;;;;;;;17.02;52.12;101233.56;8275764;28;20061;-60
2023/04/09 15:05:06;;;;;;;9.18;6.38;;;;;;;16.81;51.67;101215.91;8284901;28;20034;-59
2023/04/09 15:09:06;;;;;;;7.10;5.28;;;;;;;16.98;51.86;101220.41;8280707;28;20061;-59
2023/04/09 15:13:07;;;;;;;5.68;4.85;;;;;;;17.04;51.69;101222.50;8277353;28;20058;-59
2023/04/09 15:17:07;;;;;;;9.30;6.72;;;;;;;16.89;50.83;101221.41;8283279;28;20041;-59
2023/04/09 15:21:08;;;;;;;8.50;5.97;;;;;;;16.85;51.77;101217.28;8287125;28;20121;-60
2023/04/09 15:25:08;;;;;;;7.85;5.97;;;;;;;16.97;52.74;101222.31;8285228;28;20030;-60
2023/04/09 15:29:09;;;;;;;7.25;5.47;;;;;;;16.98;52.59;101223.16;8288155;28;20089;-60
2023/04/09 15:33:11;;;;;;;11.75;6.43;;;;;;;16.90;52.50;101215.78;8287558;28;20038;-60
2023/04/09 15:37:11;;;;;;;9.68;6.10;;;;;;;16.88;52.92;101211.50;8289316;28;20144;-60
2023/04/09 15:41:12;;;;;;;6.25;5.05;;;;;;;16.91;51.92;101200.25;8287461;28;20042;-60
2023/04/09 15:45:15;;;;;;;6.82;5.38;;;;;;;16.77;50.97;101200.88;8287871;28;20026;-61
2023/04/09 15:49:16;;;;;;;9.52;6.05;;;;;;;16.75;52.69;101211.09;8286583;28;20074;-60
2023/04/09 15:53:18;;;;;;;9.05;6.40;;;;;;;16.83;52.68;101216.59;8271092;28;20042;-60
2023/04/09 15:57:19;;;;;;;7.60;5.82;;;;;;;16.93;52.85;101214.59;8287462;28;20041;-60
2023/04/09 16:01:20;;;;;;;7.07;5.47;;;;;;;16.70;53.04;101202.53;8266776;28;20045;-60
2023/04/09 16:05:20;;;;;;;8.48;5.43;;;;;;;16.69;52.75;101201.69;8282502;28;20046;-56
2023/04/09 16:09:22;;;;;;;7.68;4.82;;;;;;;16.66;52.60;101201.16;8286444;28;20073;-55
2023/04/09 16:13:22;;;;;;;12.50;7.00;;;;;;;16.61;52.31;101214.44;8272204;28;20038;-56
2023/04/09 16:17:24;;;;;;;6.72;5.20;;;;;;;16.55;53.27;101206.88;8270513;28;20038;-55
2023/04/09 16:21:24;;;;;;;8.70;6.35;;;;;;;16.52;54.14;101202.63;8265643;28;20095;-56
2023/04/09 16:25:25;;;;;;;6.47;5.20;;;;;;;16.45;52.90;101203.44;8273166;28;20033;-57
2023/04/09 16:29:25;;;;;;;6.90;4.78;;;;;;;16.40;53.28;101198.41;8275846;28;20067;-55
2023/04/09 16:33:25;;;;;;;8.05;6.35;;;;;;;16.47;53.89;101180.41;8278617;28;20038;-56
2023/04/09 16:37:26;;;;;;;9.77;6.03;;;;;;;16.35;54.53;101180.81;8280832;28;20045;-55
2023/04/09 16:41:27;;;;;;;6.15;4.88;;;;;;;16.30;53.95;101181.31;8277171;28;20604;-55
2023/04/09 16:45:28;;;;;;;9.85;5.40;;;;;;;16.18;54.58;101176.25;8277959;28;20092;-56
2023/04/09 16:49:28;;;;;;;9.63;6.25;;;;;;;16.18;55.92;101173.53;8266929;28;20496;-56
2023/04/09 16:53:29;;;;;;;6.80;5.43;;;;;;;16.12;55.06;101168.72;8280971;28;20427;-56
2023/04/09 16:57:29;;;;;;;7.07;5.60;;;;;;;16.11;54.98;101170.63;8285601;28;20302;-55
2023/04/09 17:01:30;;;;;;;12.93;7.18;;;;;;;16.12;55.01;101171.44;8284792;28;20049;-55
2023/04/09 17:05:30;;;;;;;9.55;6.30;;;;;;;16.03;55.31;101169.69;8284096;28;20041;-56
2023/04/09 17:09:31;;;;;;;8.70;6.43;;;;;;;15.94;55.84;101178.81;8283853;28;20108;-55
2023/04/09 17:13:34;;;;;;;9.90;7.25;;;;;;;15.75;56.48;101179.88;8280827;28;20042;-56
2023/04/09 17:17:34;;;;;;;6.82;5.70;;;;;;;15.64;57.15;101191.88;8284947;28;20049;-56
2023/04/09 17:21:35;;;;;;;8.70;5.40;;;;;;;15.60;57.08;101186.91;8283713;28;20052;-56
2023/04/09 17:25:35;;;;;;;7.43;5.72;;;;;;;15.57;56.66;101181.75;8284148;28;20686;-56
2023/04/09 17:29:36;;;;;;;8.02;6.00;;;;;;;15.39;57.08;101192.66;8284506;28;20045;-55
2023/04/09 17:33:37;;;;;;;9.82;6.45;;;;;;;15.25;58.18;101184.97;8273143;28;20388;-56
2023/04/09 17:37:38;;;;;;;11.70;7.45;;;;;;;15.05;59.39;101183.41;8274878;28;20584;-56
2023/04/09 17:41:38;;;;;;;10.35;7.03;;;;;;;14.92;60.01;101193.81;8271561;28;20530;-56
2023/04/09 17:45:41;;;;;;;9.77;6.80;;;;;;;14.75;60.44;101191.03;8276682;28;20493;-56
2023/04/09 17:49:42;;;;;;;10.10;7.22;;;;;;;14.63;60.15;101182.19;8282749;28;20057;-56
2023/04/09 17:53:44;;;;;;;10.98;7.22;;;;;;;14.53;60.58;101186.84;8273689;28;20058;-56
2023/04/09 17:57:45;;;;;;;11.13;7.88;;;;;;;14.49;60.75;101185.41;8278387;28;20052;-56
2023/04/09 18:01:45;;;;;;;12.82;7.55;;;;;;;14.33;61.37;101187.91;8279386;28;20045;-56
2023/04/09 18:05:46;;;;;;;9.90;7.20;;;;;;;14.11;62.31;101190.06;8276995;28;20105;-55
2023/04/09 18:09:47;;;;;;;10.30;7.13;;;;;;;13.85;63.61;101184.44;8277370;28;20520;-56
2023/04/09 18:13:47;;;;;;;12.02;6.40;;;;;;;13.70;64.09;101188.59;8278396;28;20038;-55
2023/04/09 18:17:48;;;;;;;8.25;6.05;;;;;;;13.64;63.66;101181.00;8279166;28;20038;-55
2023/04/09 18:21:48;;;;;;;7.50;5.97;;;;;;;13.60;63.17;101201.28;8277990;28;20044;-56
2023/04/09 18:25:49;;;;;;;8.80;6.30;;;;;;;13.50;63.75;101197.72;8278811;28;20046;-56
2023/04/09 18:29:51;;;;;;;10.93;5.88;;;;;;;13.40;63.44;101196.88;8277697;28;20061;-56
2023/04/09 18:33:51;;;;;;;7.47;5.82;;;;;;;13.29;63.63;101202.44;8277830;28;20049;-56